TimeCDT,TemperatureF,Dew PointF,Humidity,Sea Level PressureIn,VisibilityMPH,Wind Direction,Wind SpeedMPH,Gust SpeedMPH,PrecipitationIn,Events,Conditions,WindDirDegrees,DateUTC
12:56 AM,57.9,48.9,72,30.05,10.0,SSE,5.8,-,N/A,,Clear,160,2013-09-14 05:56:00
1:56 AM,57.9,50.0,75,30.04,10.0,SSE,9.2,-,N/A,,Mostly Cloudy,160,2013-09-14 06:56:00
2:56 AM,59.0,50.0,72,30.04,10.0,South,6.9,-,N/A,,Overcast,170,2013-09-14 07:56:00
3:56 AM,60.1,48.9,67,30.03,10.0,South,8.1,-,N/A,,Overcast,180,2013-09-14 08:56:00
4:56 AM,61.0,48.9,64,30.02,10.0,South,8.1,-,0.00,,Overcast,190,2013-09-14 09:56:00
5:56 AM,59.0,50.0,72,30.01,10.0,SSE,8.1,-,N/A,,Mostly Cloudy,160,2013-09-14 10:56:00
6:56 AM,57.0,50.0,77,30.01,10.0,South,8.1,-,N/A,,Partly Cloudy,170,2013-09-14 11:56:00
7:56 AM,60.1,48.9,67,30.02,10.0,South,12.7,-,N/A,,Overcast,170,2013-09-14 12:56:00
8:56 AM,62.1,48.0,60,30.02,10.0,South,10.4,-,N/A,,Overcast,180,2013-09-14 13:56:00
9:56 AM,62.1,48.9,62,30.01,10.0,SSE,10.4,19.6,N/A,,Overcast,160,2013-09-14 14:56:00
10:56 AM,64.0,50.0,60,30.00,10.0,South,13.8,-,N/A,,Overcast,190,2013-09-14 15:56:00
11:56 AM,68.0,50.0,52,29.97,10.0,South,16.1,-,N/A,,Overcast,180,2013-09-14 16:56:00
12:56 PM,70.0,50.0,49,29.95,10.0,South,13.8,23.0,N/A,,Mostly Cloudy,180,2013-09-14 17:56:00
1:56 PM,72.0,51.1,48,29.93,10.0,South,16.1,23.0,0.00,,Mostly Cloudy,170,2013-09-14 18:56:00
2:56 PM,73.0,52.0,48,29.90,10.0,South,15.0,25.3,N/A,,Overcast,180,2013-09-14 19:56:00
3:56 PM,73.0,52.0,48,29.88,10.0,South,16.1,23.0,N/A,,Mostly Cloudy,180,2013-09-14 20:56:00
4:56 PM,72.0,52.0,49,29.86,10.0,South,15.0,-,N/A,,Scattered Clouds,180,2013-09-14 21:56:00
5:56 PM,75.0,54.0,48,29.83,10.0,South,17.3,21.9,N/A,,Clear,170,2013-09-14 22:56:00
6:56 PM,73.0,54.0,51,29.84,10.0,South,9.2,-,N/A,,Clear,180,2013-09-14 23:56:00
7:56 PM,70.0,55.0,59,29.84,10.0,South,4.6,-,N/A,,Overcast,180,2013-09-15 00:56:00
8:56 PM,70.0,55.0,59,29.84,10.0,South,6.9,-,N/A,,Overcast,170,2013-09-15 01:56:00
9:56 PM,70.0,55.0,59,29.84,10.0,South,4.6,-,N/A,,Overcast,170,2013-09-15 02:56:00
10:56 PM,66.9,55.9,68,29.83,10.0,South,8.1,-,N/A,,Clear,170,2013-09-15 03:56:00
11:56 PM,66.9,57.0,70,29.84,10.0,South,9.2,-,N/A,,Clear,180,2013-09-15 04:56:00